sensor_id;sensor_type;location;lat;lon;timestamp;P1;durP1;ratioP1;P2;durP2;ratioP2
30729;SDS011;17476;48.458;7.928;2023-05-19T00:01:06;0.30;;;0.30;;
30729;SDS011;17476;48.458;7.928;2023-05-19T00:03:36;0.40;;;0.40;;
30729;SDS011;17476;48.458;7.928;2023-05-19T00:06:04;0.20;;;0.20;;
30729;SDS011;17476;48.458;7.928;2023-05-19T00:08:34;0.20;;;0.20;;
30729;SDS011;17476;48.458;7.928;2023-05-19T00:11:02;0.10;;;0.10;;
30729;SDS011;17476;48.458;7.928;2023-05-19T00:13:28;0.20;;;0.20;;
30729;SDS011;17476;48.458;7.928;2023-05-19T00:15:55;0.10;;;0.10;;
30729;SDS011;17476;48.458;7.928;2023-05-19T00:18:21;0.20;;;0.20;;
30729;SDS011;17476;48.458;7.928;2023-05-19T00:20:47;0.20;;;0.20;;
30729;SDS011;17476;48.458;7.928;2023-05-19T00:23:13;0.27;;;0.27;;
30729;SDS011;17476;48.458;7.928;2023-05-19T00:25:39;0.30;;;0.30;;
30729;SDS011;17476;48.458;7.928;2023-05-19T00:28:05;0.30;;;0.30;;
30729;SDS011;17476;48.458;7.928;2023-05-19T00:30:31;0.13;;;0.13;;
30729;SDS011;17476;48.458;7.928;2023-05-19T00:32:56;0.20;;;0.20;;
30729;SDS011;17476;48.458;7.928;2023-05-19T00:35:22;0.10;;;0.10;;
30729;SDS011;17476;48.458;7.928;2023-05-19T00:37:49;0.20;;;0.20;;
30729;SDS011;17476;48.458;7.928;2023-05-19T00:40:14;0.30;;;0.30;;
30729;SDS011;17476;48.458;7.928;2023-05-19T00:42:41;0.30;;;0.30;;
30729;SDS011;17476;48.458;7.928;2023-05-19T00:45:07;0.20;;;0.20;;
30729;SDS011;17476;48.458;7.928;2023-05-19T00:47:33;0.20;;;0.20;;
30729;SDS011;17476;48.458;7.928;2023-05-19T00:49:59;0.20;;;0.20;;
30729;SDS011;17476;48.458;7.928;2023-05-19T00:52:25;0.30;;;0.30;;
30729;SDS011;17476;48.458;7.928;2023-05-19T00:54:52;0.20;;;0.20;;
30729;SDS011;17476;48.458;7.928;2023-05-19T00:57:19;0.30;;;0.30;;
30729;SDS011;17476;48.458;7.928;2023-05-19T00:59:46;0.40;;;0.40;;
30729;SDS011;17476;48.458;7.928;2023-05-19T01:02:18;0.20;;;0.20;;
30729;SDS011;17476;48.458;7.928;2023-05-19T01:04:44;0.20;;;0.20;;
30729;SDS011;17476;48.458;7.928;2023-05-19T01:07:11;0.20;;;0.20;;
30729;SDS011;17476;48.458;7.928;2023-05-19T01:09:36;0.20;;;0.20;;
30729;SDS011;17476;48.458;7.928;2023-05-19T01:12:03;0.20;;;0.20;;
30729;SDS011;17476;48.458;7.928;2023-05-19T01:14:29;0.20;;;0.20;;
30729;SDS011;17476;48.458;7.928;2023-05-19T01:17:44;0.20;;;0.20;;
30729;SDS011;17476;48.458;7.928;2023-05-19T01:20:12;0.20;;;0.20;;
30729;SDS011;17476;48.458;7.928;2023-05-19T01:25:40;0.20;;;0.20;;
30729;SDS011;17476;48.458;7.928;2023-05-19T01:29:07;0.30;;;0.30;;
30729;SDS011;17476;48.458;7.928;2023-05-19T01:31:51;0.30;;;0.30;;
30729;SDS011;17476;48.458;7.928;2023-05-19T01:34:19;0.30;;;0.30;;
30729;SDS011;17476;48.458;7.928;2023-05-19T01:36:47;0.20;;;0.20;;
30729;SDS011;17476;48.458;7.928;2023-05-19T01:39:15;0.20;;;0.20;;
30729;SDS011;17476;48.458;7.928;2023-05-19T01:41:42;0.30;;;0.30;;
30729;SDS011;17476;48.458;7.928;2023-05-19T01:44:09;0.30;;;0.30;;
30729;SDS011;17476;48.458;7.928;2023-05-19T01:46:36;0.20;;;0.20;;
30729;SDS011;17476;48.458;7.928;2023-05-19T01:49:02;0.20;;;0.20;;
30729;SDS011;17476;48.458;7.928;2023-05-19T01:51:30;0.30;;;0.30;;
30729;SDS011;17476;48.458;7.928;2023-05-19T01:53:56;0.20;;;0.20;;
30729;SDS011;17476;48.458;7.928;2023-05-19T01:56:26;0.30;;;0.30;;
30729;SDS011;17476;48.458;7.928;2023-05-19T01:59:50;0.30;;;0.30;;
30729;SDS011;17476;48.458;7.928;2023-05-19T02:05:31;0.30;;;0.30;;
30729;SDS011;17476;48.458;7.928;2023-05-19T02:10:47;0.13;;;0.13;;
30729;SDS011;17476;48.458;7.928;2023-05-19T02:13:22;0.20;;;0.20;;
30729;SDS011;17476;48.458;7.928;2023-05-19T02:15:53;0.30;;;0.30;;
30729;SDS011;17476;48.458;7.928;2023-05-19T02:18:28;0.30;;;0.30;;
30729;SDS011;17476;48.458;7.928;2023-05-19T02:20:55;0.20;;;0.20;;
30729;SDS011;17476;48.458;7.928;2023-05-19T02:23:21;0.20;;;0.20;;
30729;SDS011;17476;48.458;7.928;2023-05-19T02:25:47;0.20;;;0.20;;
30729;SDS011;17476;48.458;7.928;2023-05-19T02:28:13;0.27;;;0.27;;
30729;SDS011;17476;48.458;7.928;2023-05-19T02:30:38;0.20;;;0.20;;
30729;SDS011;17476;48.458;7.928;2023-05-19T02:33:04;0.27;;;0.27;;
30729;SDS011;17476;48.458;7.928;2023-05-19T02:35:30;0.20;;;0.20;;
30729;SDS011;17476;48.458;7.928;2023-05-19T02:37:57;0.20;;;0.20;;
30729;SDS011;17476;48.458;7.928;2023-05-19T02:40:23;0.30;;;0.30;;
30729;SDS011;17476;48.458;7.928;2023-05-19T02:42:49;0.30;;;0.30;;
30729;SDS011;17476;48.458;7.928;2023-05-19T02:45:15;0.30;;;0.30;;
30729;SDS011;17476;48.458;7.928;2023-05-19T02:47:41;0.30;;;0.30;;
30729;SDS011;17476;48.458;7.928;2023-05-19T02:50:07;0.20;;;0.20;;
30729;SDS011;17476;48.458;7.928;2023-05-19T02:52:33;0.20;;;0.20;;
30729;SDS011;17476;48.458;7.928;2023-05-19T02:54:59;0.20;;;0.20;;
30729;SDS011;17476;48.458;7.928;2023-05-19T02:57:25;0.20;;;0.20;;
30729;SDS011;17476;48.458;7.928;2023-05-19T02:59:54;0.20;;;0.20;;
30729;SDS011;17476;48.458;7.928;2023-05-19T03:02:20;0.20;;;0.20;;
30729;SDS011;17476;48.458;7.928;2023-05-19T03:04:46;0.30;;;0.30;;
30729;SDS011;17476;48.458;7.928;2023-05-19T03:07:11;0.30;;;0.30;;
30729;SDS011;17476;48.458;7.928;2023-05-19T03:09:37;0.30;;;0.30;;
30729;SDS011;17476;48.458;7.928;2023-05-19T03:12:04;0.30;;;0.30;;
30729;SDS011;17476;48.458;7.928;2023-05-19T03:14:32;0.20;;;0.20;;
30729;SDS011;17476;48.458;7.928;2023-05-19T03:16:59;0.30;;;0.30;;
30729;SDS011;17476;48.458;7.928;2023-05-19T03:19:25;0.30;;;0.30;;
30729;SDS011;17476;48.458;7.928;2023-05-19T03:21:51;0.30;;;0.30;;
30729;SDS011;17476;48.458;7.928;2023-05-19T03:24:17;0.20;;;0.20;;
30729;SDS011;17476;48.458;7.928;2023-05-19T03:26:43;0.30;;;0.30;;
30729;SDS011;17476;48.458;7.928;2023-05-19T03:29:08;0.20;;;0.20;;
30729;SDS011;17476;48.458;7.928;2023-05-19T03:31:34;0.20;;;0.20;;
30729;SDS011;17476;48.458;7.928;2023-05-19T03:34:00;0.30;;;0.30;;
30729;SDS011;17476;48.458;7.928;2023-05-19T03:36:27;0.30;;;0.30;;
30729;SDS011;17476;48.458;7.928;2023-05-19T03:39:03;0.20;;;0.20;;
30729;SDS011;17476;48.458;7.928;2023-05-19T03:41:30;0.20;;;0.20;;
30729;SDS011;17476;48.458;7.928;2023-05-19T03:43:56;0.30;;;0.30;;
30729;SDS011;17476;48.458;7.928;2023-05-19T03:46:22;0.20;;;0.20;;
30729;SDS011;17476;48.458;7.928;2023-05-19T03:48:48;0.30;;;0.30;;
30729;SDS011;17476;48.458;7.928;2023-05-19T03:51:14;0.20;;;0.20;;
30729;SDS011;17476;48.458;7.928;2023-05-19T03:53:39;0.20;;;0.20;;
30729;SDS011;17476;48.458;7.928;2023-05-19T03:56:05;0.30;;;0.30;;
30729;SDS011;17476;48.458;7.928;2023-05-19T03:58:32;0.30;;;0.30;;
30729;SDS011;17476;48.458;7.928;2023-05-19T04:00:58;0.30;;;0.30;;
30729;SDS011;17476;48.458;7.928;2023-05-19T04:03:24;0.20;;;0.20;;
30729;SDS011;17476;48.458;7.928;2023-05-19T04:05:52;0.30;;;0.30;;
30729;SDS011;17476;48.458;7.928;2023-05-19T04:08:18;0.20;;;0.20;;
30729;SDS011;17476;48.458;7.928;2023-05-19T04:10:44;0.20;;;0.20;;
30729;SDS011;17476;48.458;7.928;2023-05-19T04:13:09;0.20;;;0.20;;
30729;SDS011;17476;48.458;7.928;2023-05-19T04:15:35;0.30;;;0.30;;
30729;SDS011;17476;48.458;7.928;2023-05-19T04:18:01;0.30;;;0.30;;
30729;SDS011;17476;48.458;7.928;2023-05-19T04:20:27;0.30;;;0.30;;
30729;SDS011;17476;48.458;7.928;2023-05-19T04:22:53;0.20;;;0.20;;
30729;SDS011;17476;48.458;7.928;2023-05-19T04:25:18;0.20;;;0.20;;
30729;SDS011;17476;48.458;7.928;2023-05-19T04:27:44;0.30;;;0.30;;
30729;SDS011;17476;48.458;7.928;2023-05-19T04:30:12;0.23;;;0.23;;
30729;SDS011;17476;48.458;7.928;2023-05-19T04:32:41;0.20;;;0.20;;
30729;SDS011;17476;48.458;7.928;2023-05-19T04:35:07;0.20;;;0.20;;
30729;SDS011;17476;48.458;7.928;2023-05-19T04:37:32;0.10;;;0.10;;
30729;SDS011;17476;48.458;7.928;2023-05-19T04:40:01;0.20;;;0.20;;
30729;SDS011;17476;48.458;7.928;2023-05-19T04:42:29;0.10;;;0.10;;
30729;SDS011;17476;48.458;7.928;2023-05-19T04:44:56;0.23;;;0.23;;
30729;SDS011;17476;48.458;7.928;2023-05-19T04:47:22;0.33;;;0.33;;
30729;SDS011;17476;48.458;7.928;2023-05-19T04:49:51;0.20;;;0.20;;
30729;SDS011;17476;48.458;7.928;2023-05-19T04:52:19;0.20;;;0.20;;
30729;SDS011;17476;48.458;7.928;2023-05-19T04:54:46;0.30;;;0.30;;
30729;SDS011;17476;48.458;7.928;2023-05-19T04:57:12;0.30;;;0.30;;
30729;SDS011;17476;48.458;7.928;2023-05-19T04:59:40;0.20;;;0.20;;
30729;SDS011;17476;48.458;7.928;2023-05-19T05:02:06;0.30;;;0.30;;
30729;SDS011;17476;48.458;7.928;2023-05-19T05:04:32;0.20;;;0.20;;
30729;SDS011;17476;48.458;7.928;2023-05-19T05:06:58;0.30;;;0.30;;
30729;SDS011;17476;48.458;7.928;2023-05-19T05:09:24;0.20;;;0.20;;
30729;SDS011;17476;48.458;7.928;2023-05-19T05:11:50;0.20;;;0.20;;
30729;SDS011;17476;48.458;7.928;2023-05-19T05:14:16;0.30;;;0.30;;
30729;SDS011;17476;48.458;7.928;2023-05-19T05:16:42;0.17;;;0.17;;
30729;SDS011;17476;48.458;7.928;2023-05-19T05:19:09;0.20;;;0.20;;
30729;SDS011;17476;48.458;7.928;2023-05-19T05:21:36;0.23;;;0.23;;
30729;SDS011;17476;48.458;7.928;2023-05-19T05:24:02;0.30;;;0.30;;
30729;SDS011;17476;48.458;7.928;2023-05-19T05:26:29;0.20;;;0.20;;
30729;SDS011;17476;48.458;7.928;2023-05-19T05:28:57;0.20;;;0.20;;
30729;SDS011;17476;48.458;7.928;2023-05-19T05:31:23;0.20;;;0.20;;
30729;SDS011;17476;48.458;7.928;2023-05-19T05:33:48;0.27;;;0.27;;
30729;SDS011;17476;48.458;7.928;2023-05-19T05:36:14;0.30;;;0.30;;
30729;SDS011;17476;48.458;7.928;2023-05-19T05:38:40;0.20;;;0.20;;
30729;SDS011;17476;48.458;7.928;2023-05-19T05:41:06;0.20;;;0.20;;
30729;SDS011;17476;48.458;7.928;2023-05-19T05:43:32;0.37;;;0.37;;
30729;SDS011;17476;48.458;7.928;2023-05-19T05:45:57;0.30;;;0.30;;
30729;SDS011;17476;48.458;7.928;2023-05-19T05:48:23;0.20;;;0.20;;
30729;SDS011;17476;48.458;7.928;2023-05-19T05:50:49;0.30;;;0.30;;
30729;SDS011;17476;48.458;7.928;2023-05-19T05:53:17;0.20;;;0.20;;
30729;SDS011;17476;48.458;7.928;2023-05-19T05:55:47;0.20;;;0.20;;
30729;SDS011;17476;48.458;7.928;2023-05-19T05:58:14;0.20;;;0.20;;
30729;SDS011;17476;48.458;7.928;2023-05-19T06:00:41;0.30;;;0.30;;
30729;SDS011;17476;48.458;7.928;2023-05-19T06:03:08;0.20;;;0.20;;
30729;SDS011;17476;48.458;7.928;2023-05-19T06:05:35;0.10;;;0.10;;
30729;SDS011;17476;48.458;7.928;2023-05-19T06:08:02;0.20;;;0.20;;
30729;SDS011;17476;48.458;7.928;2023-05-19T06:10:28;0.20;;;0.20;;
30729;SDS011;17476;48.458;7.928;2023-05-19T06:12:54;0.20;;;0.20;;
30729;SDS011;17476;48.458;7.928;2023-05-19T06:15:20;0.20;;;0.20;;
30729;SDS011;17476;48.458;7.928;2023-05-19T06:17:46;0.20;;;0.20;;
30729;SDS011;17476;48.458;7.928;2023-05-19T06:20:12;0.20;;;0.20;;
30729;SDS011;17476;48.458;7.928;2023-05-19T06:22:38;0.10;;;0.10;;
30729;SDS011;17476;48.458;7.928;2023-05-19T06:25:05;0.10;;;0.10;;
30729;SDS011;17476;48.458;7.928;2023-05-19T06:27:33;0.10;;;0.10;;
30729;SDS011;17476;48.458;7.928;2023-05-19T06:29:59;0.20;;;0.20;;
30729;SDS011;17476;48.458;7.928;2023-05-19T06:32:25;0.20;;;0.20;;
30729;SDS011;17476;48.458;7.928;2023-05-19T06:34:51;0.10;;;0.10;;
30729;SDS011;17476;48.458;7.928;2023-05-19T06:37:20;0.10;;;0.10;;
30729;SDS011;17476;48.458;7.928;2023-05-19T06:39:47;0.13;;;0.13;;
30729;SDS011;17476;48.458;7.928;2023-05-19T06:42:20;0.20;;;0.20;;
30729;SDS011;17476;48.458;7.928;2023-05-19T06:44:50;0.10;;;0.10;;
30729;SDS011;17476;48.458;7.928;2023-05-19T06:47:17;0.20;;;0.20;;
30729;SDS011;17476;48.458;7.928;2023-05-19T06:49:43;0.20;;;0.20;;
30729;SDS011;17476;48.458;7.928;2023-05-19T06:52:10;0.20;;;0.20;;
30729;SDS011;17476;48.458;7.928;2023-05-19T06:54:36;0.10;;;0.10;;
30729;SDS011;17476;48.458;7.928;2023-05-19T06:57:02;0.10;;;0.10;;
30729;SDS011;17476;48.458;7.928;2023-05-19T06:59:28;0.20;;;0.20;;
30729;SDS011;17476;48.458;7.928;2023-05-19T07:01:54;0.10;;;0.10;;
30729;SDS011;17476;48.458;7.928;2023-05-19T07:04:20;0.00;;;0.00;;
30729;SDS011;17476;48.458;7.928;2023-05-19T07:06:46;0.10;;;0.10;;
30729;SDS011;17476;48.458;7.928;2023-05-19T07:09:14;0.10;;;0.10;;
30729;SDS011;17476;48.458;7.928;2023-05-19T07:11:40;0.10;;;0.10;;
30729;SDS011;17476;48.458;7.928;2023-05-19T07:14:06;0.10;;;0.10;;
30729;SDS011;17476;48.458;7.928;2023-05-19T07:16:31;0.10;;;0.10;;
30729;SDS011;17476;48.458;7.928;2023-05-19T07:18:57;0.13;;;0.13;;
30729;SDS011;17476;48.458;7.928;2023-05-19T07:21:23;0.00;;;0.00;;
30729;SDS011;17476;48.458;7.928;2023-05-19T07:23:49;0.10;;;0.10;;
30729;SDS011;17476;48.458;7.928;2023-05-19T07:26:15;0.00;;;0.00;;
30729;SDS011;17476;48.458;7.928;2023-05-19T07:28:40;0.10;;;0.10;;
30729;SDS011;17476;48.458;7.928;2023-05-19T07:31:07;0.10;;;0.10;;
30729;SDS011;17476;48.458;7.928;2023-05-19T07:33:33;0.07;;;0.07;;
30729;SDS011;17476;48.458;7.928;2023-05-19T07:35:59;0.00;;;0.00;;
30729;SDS011;17476;48.458;7.928;2023-05-19T07:38:25;0.00;;;0.00;;
30729;SDS011;17476;48.458;7.928;2023-05-19T07:40:52;0.10;;;0.10;;
30729;SDS011;17476;48.458;7.928;2023-05-19T07:43:18;0.10;;;0.10;;
30729;SDS011;17476;48.458;7.928;2023-05-19T07:45:44;0.10;;;0.10;;
30729;SDS011;17476;48.458;7.928;2023-05-19T07:48:10;0.10;;;0.10;;
30729;SDS011;17476;48.458;7.928;2023-05-19T07:50:36;0.10;;;0.10;;
30729;SDS011;17476;48.458;7.928;2023-05-19T07:53:02;0.10;;;0.10;;
30729;SDS011;17476;48.458;7.928;2023-05-19T07:55:27;0.00;;;0.00;;
30729;SDS011;17476;48.458;7.928;2023-05-19T07:57:53;0.10;;;0.10;;
30729;SDS011;17476;48.458;7.928;2023-05-19T08:00:20;0.10;;;0.10;;
30729;SDS011;17476;48.458;7.928;2023-05-19T08:02:46;0.00;;;0.00;;
30729;SDS011;17476;48.458;7.928;2023-05-19T08:05:11;0.10;;;0.10;;
30729;SDS011;17476;48.458;7.928;2023-05-19T08:07:38;0.10;;;0.10;;
30729;SDS011;17476;48.458;7.928;2023-05-19T08:10:04;0.00;;;0.00;;
30729;SDS011;17476;48.458;7.928;2023-05-19T08:12:31;0.10;;;0.10;;
30729;SDS011;17476;48.458;7.928;2023-05-19T08:14:57;0.10;;;0.10;;
30729;SDS011;17476;48.458;7.928;2023-05-19T08:17:22;0.00;;;0.00;;
30729;SDS011;17476;48.458;7.928;2023-05-19T08:19:48;0.10;;;0.10;;
30729;SDS011;17476;48.458;7.928;2023-05-19T08:22:14;0.10;;;0.10;;
30729;SDS011;17476;48.458;7.928;2023-05-19T08:24:40;0.10;;;0.10;;
30729;SDS011;17476;48.458;7.928;2023-05-19T08:27:07;0.10;;;0.10;;
30729;SDS011;17476;48.458;7.928;2023-05-19T08:29:33;0.00;;;0.00;;
30729;SDS011;17476;48.458;7.928;2023-05-19T08:31:58;0.10;;;0.10;;
30729;SDS011;17476;48.458;7.928;2023-05-19T08:34:26;0.00;;;0.00;;
30729;SDS011;17476;48.458;7.928;2023-05-19T08:36:52;0.00;;;0.00;;
30729;SDS011;17476;48.458;7.928;2023-05-19T08:39:21;0.00;;;0.00;;
30729;SDS011;17476;48.458;7.928;2023-05-19T08:41:51;0.10;;;0.10;;
30729;SDS011;17476;48.458;7.928;2023-05-19T08:44:18;0.10;;;0.10;;
30729;SDS011;17476;48.458;7.928;2023-05-19T08:46:45;0.07;;;0.07;;
30729;SDS011;17476;48.458;7.928;2023-05-19T08:49:12;0.10;;;0.10;;
30729;SDS011;17476;48.458;7.928;2023-05-19T08:54:14;0.00;;;0.00;;
30729;SDS011;17476;48.458;7.928;2023-05-19T08:56:42;0.00;;;0.00;;
30729;SDS011;17476;48.458;7.928;2023-05-19T08:59:12;0.10;;;0.10;;
30729;SDS011;17476;48.458;7.928;2023-05-19T09:01:41;0.00;;;0.00;;
30729;SDS011;17476;48.458;7.928;2023-05-19T09:04:09;0.10;;;0.10;;
30729;SDS011;17476;48.458;7.928;2023-05-19T09:06:36;0.10;;;0.10;;
30729;SDS011;17476;48.458;7.928;2023-05-19T09:09:05;0.10;;;0.10;;
30729;SDS011;17476;48.458;7.928;2023-05-19T09:11:32;0.00;;;0.00;;
30729;SDS011;17476;48.458;7.928;2023-05-19T09:14:01;0.10;;;0.10;;
30729;SDS011;17476;48.458;7.928;2023-05-19T09:16:29;0.10;;;0.10;;
30729;SDS011;17476;48.458;7.928;2023-05-19T09:18:56;0.00;;;0.00;;
30729;SDS011;17476;48.458;7.928;2023-05-19T09:21:29;0.10;;;0.10;;
30729;SDS011;17476;48.458;7.928;2023-05-19T09:24:04;0.03;;;0.03;;
30729;SDS011;17476;48.458;7.928;2023-05-19T09:26:39;0.10;;;0.10;;
30729;SDS011;17476;48.458;7.928;2023-05-19T09:29:10;0.10;;;0.10;;
30729;SDS011;17476;48.458;7.928;2023-05-19T09:34:14;0.10;;;0.10;;
30729;SDS011;17476;48.458;7.928;2023-05-19T09:36:40;0.00;;;0.00;;
30729;SDS011;17476;48.458;7.928;2023-05-19T09:39:13;0.10;;;0.10;;
30729;SDS011;17476;48.458;7.928;2023-05-19T09:41:40;0.03;;;0.03;;
30729;SDS011;17476;48.458;7.928;2023-05-19T09:44:07;0.10;;;0.10;;
30729;SDS011;17476;48.458;7.928;2023-05-19T09:46:48;0.10;;;0.10;;
30729;SDS011;17476;48.458;7.928;2023-05-19T09:49:18;0.10;;;0.10;;
30729;SDS011;17476;48.458;7.928;2023-05-19T09:52:01;0.00;;;0.00;;
30729;SDS011;17476;48.458;7.928;2023-05-19T09:54:28;0.00;;;0.00;;
30729;SDS011;17476;48.458;7.928;2023-05-19T09:56:56;0.10;;;0.10;;
30729;SDS011;17476;48.458;7.928;2023-05-19T09:59:28;0.10;;;0.10;;
30729;SDS011;17476;48.458;7.928;2023-05-19T10:01:55;0.07;;;0.07;;
30729;SDS011;17476;48.458;7.928;2023-05-19T10:04:23;0.10;;;0.10;;
30729;SDS011;17476;48.458;7.928;2023-05-19T10:06:52;0.10;;;0.10;;
30729;SDS011;17476;48.458;7.928;2023-05-19T10:09:23;0.00;;;0.00;;
30729;SDS011;17476;48.458;7.928;2023-05-19T10:11:51;0.00;;;0.00;;
30729;SDS011;17476;48.458;7.928;2023-05-19T10:14:22;0.00;;;0.00;;
30729;SDS011;17476;48.458;7.928;2023-05-19T10:16:50;0.10;;;0.10;;
30729;SDS011;17476;48.458;7.928;2023-05-19T10:19:21;0.10;;;0.10;;
30729;SDS011;17476;48.458;7.928;2023-05-19T10:21:49;0.10;;;0.10;;
30729;SDS011;17476;48.458;7.928;2023-05-19T10:24:16;0.07;;;0.07;;
30729;SDS011;17476;48.458;7.928;2023-05-19T10:26:43;0.10;;;0.10;;
30729;SDS011;17476;48.458;7.928;2023-05-19T10:29:14;0.00;;;0.00;;
30729;SDS011;17476;48.458;7.928;2023-05-19T10:31:44;0.00;;;0.00;;
30729;SDS011;17476;48.458;7.928;2023-05-19T10:36:43;0.00;;;0.00;;
30729;SDS011;17476;48.458;7.928;2023-05-19T10:39:17;0.10;;;0.10;;
30729;SDS011;17476;48.458;7.928;2023-05-19T10:42:09;0.00;;;0.00;;
30729;SDS011;17476;48.458;7.928;2023-05-19T10:45:12;0.10;;;0.10;;
30729;SDS011;17476;48.458;7.928;2023-05-19T10:47:49;0.00;;;0.00;;
30729;SDS011;17476;48.458;7.928;2023-05-19T10:50:15;0.10;;;0.10;;
30729;SDS011;17476;48.458;7.928;2023-05-19T10:52:41;0.10;;;0.10;;
30729;SDS011;17476;48.458;7.928;2023-05-19T10:55:11;0.03;;;0.03;;
30729;SDS011;17476;48.458;7.928;2023-05-19T10:57:53;0.10;;;0.10;;
30729;SDS011;17476;48.458;7.928;2023-05-19T11:00:29;0.10;;;0.10;;
30729;SDS011;17476;48.458;7.928;2023-05-19T11:03:10;0.00;;;0.00;;
30729;SDS011;17476;48.458;7.928;2023-05-19T11:05:38;0.00;;;0.00;;
30729;SDS011;17476;48.458;7.928;2023-05-19T11:08:05;0.00;;;0.00;;
30729;SDS011;17476;48.458;7.928;2023-05-19T11:10:36;0.00;;;0.00;;
30729;SDS011;17476;48.458;7.928;2023-05-19T11:13:03;0.10;;;0.10;;
30729;SDS011;17476;48.458;7.928;2023-05-19T11:15:32;0.07;;;0.07;;
30729;SDS011;17476;48.458;7.928;2023-05-19T11:18:03;0.10;;;0.10;;
30729;SDS011;17476;48.458;7.928;2023-05-19T11:20:30;0.00;;;0.00;;
30729;SDS011;17476;48.458;7.928;2023-05-19T11:23:32;0.10;;;0.10;;
30729;SDS011;17476;48.458;7.928;2023-05-19T11:25:51;0.10;;;0.10;;
30729;SDS011;17476;48.458;7.928;2023-05-19T11:28:19;0.00;;;0.00;;
30729;SDS011;17476;48.458;7.928;2023-05-19T11:30:55;0.10;;;0.10;;
30729;SDS011;17476;48.458;7.928;2023-05-19T11:33:23;0.00;;;0.00;;
30729;SDS011;17476;48.458;7.928;2023-05-19T11:35:51;0.10;;;0.10;;
30729;SDS011;17476;48.458;7.928;2023-05-19T11:38:21;0.10;;;0.10;;
30729;SDS011;17476;48.458;7.928;2023-05-19T11:40:48;0.10;;;0.10;;
30729;SDS011;17476;48.458;7.928;2023-05-19T11:43:17;0.00;;;0.00;;
30729;SDS011;17476;48.458;7.928;2023-05-19T11:45:43;0.10;;;0.10;;
30729;SDS011;17476;48.458;7.928;2023-05-19T11:48:10;0.10;;;0.10;;
30729;SDS011;17476;48.458;7.928;2023-05-19T11:50:37;0.03;;;0.03;;
30729;SDS011;17476;48.458;7.928;2023-05-19T11:53:06;0.00;;;0.00;;
30729;SDS011;17476;48.458;7.928;2023-05-19T11:55:32;0.10;;;0.10;;
30729;SDS011;17476;48.458;7.928;2023-05-19T11:58:02;0.00;;;0.00;;
30729;SDS011;17476;48.458;7.928;2023-05-19T12:00:29;0.10;;;0.10;;
30729;SDS011;17476;48.458;7.928;2023-05-19T12:03:03;0.00;;;0.00;;
30729;SDS011;17476;48.458;7.928;2023-05-19T12:05:29;0.00;;;0.00;;
30729;SDS011;17476;48.458;7.928;2023-05-19T12:07:55;0.07;;;0.07;;
30729;SDS011;17476;48.458;7.928;2023-05-19T12:12:55;0.10;;;0.10;;
30729;SDS011;17476;48.458;7.928;2023-05-19T12:15:23;0.10;;;0.10;;
30729;SDS011;17476;48.458;7.928;2023-05-19T12:17:59;0.00;;;0.00;;
30729;SDS011;17476;48.458;7.928;2023-05-19T12:20:26;0.10;;;0.10;;
30729;SDS011;17476;48.458;7.928;2023-05-19T12:22:56;0.00;;;0.00;;
30729;SDS011;17476;48.458;7.928;2023-05-19T12:25:24;0.10;;;0.10;;
30729;SDS011;17476;48.458;7.928;2023-05-19T12:27:50;0.13;;;0.13;;
30729;SDS011;17476;48.458;7.928;2023-05-19T12:30:23;0.00;;;0.00;;
30729;SDS011;17476;48.458;7.928;2023-05-19T12:32:53;0.10;;;0.10;;
30729;SDS011;17476;48.458;7.928;2023-05-19T12:35:24;0.10;;;0.10;;
30729;SDS011;17476;48.458;7.928;2023-05-19T12:37:54;0.10;;;0.10;;
30729;SDS011;17476;48.458;7.928;2023-05-19T12:40:21;0.10;;;0.10;;
30729;SDS011;17476;48.458;7.928;2023-05-19T12:42:48;0.00;;;0.00;;
30729;SDS011;17476;48.458;7.928;2023-05-19T12:45:19;0.10;;;0.10;;
30729;SDS011;17476;48.458;7.928;2023-05-19T12:47:47;0.00;;;0.00;;
30729;SDS011;17476;48.458;7.928;2023-05-19T12:50:14;0.10;;;0.10;;
30729;SDS011;17476;48.458;7.928;2023-05-19T12:52:43;0.00;;;0.00;;
30729;SDS011;17476;48.458;7.928;2023-05-19T12:55:12;0.00;;;0.00;;
30729;SDS011;17476;48.458;7.928;2023-05-19T12:57:42;0.10;;;0.10;;
30729;SDS011;17476;48.458;7.928;2023-05-19T13:00:13;0.10;;;0.10;;
30729;SDS011;17476;48.458;7.928;2023-05-19T13:05:29;0.00;;;0.00;;
30729;SDS011;17476;48.458;7.928;2023-05-19T13:10:33;0.00;;;0.00;;
30729;SDS011;17476;48.458;7.928;2023-05-19T13:13:04;0.10;;;0.10;;
30729;SDS011;17476;48.458;7.928;2023-05-19T13:15:31;0.07;;;0.07;;
30729;SDS011;17476;48.458;7.928;2023-05-19T13:18:00;0.00;;;0.00;;
30729;SDS011;17476;48.458;7.928;2023-05-19T13:20:31;0.03;;;0.03;;
30729;SDS011;17476;48.458;7.928;2023-05-19T13:22:57;0.10;;;0.10;;
30729;SDS011;17476;48.458;7.928;2023-05-19T13:25:23;0.00;;;0.00;;
30729;SDS011;17476;48.458;7.928;2023-05-19T13:27:49;0.00;;;0.00;;
30729;SDS011;17476;48.458;7.928;2023-05-19T13:30:16;0.10;;;0.10;;
30729;SDS011;17476;48.458;7.928;2023-05-19T13:32:43;0.10;;;0.10;;
30729;SDS011;17476;48.458;7.928;2023-05-19T13:35:14;0.00;;;0.00;;
30729;SDS011;17476;48.458;7.928;2023-05-19T13:38:04;0.10;;;0.10;;
30729;SDS011;17476;48.458;7.928;2023-05-19T13:40:33;0.10;;;0.10;;
30729;SDS011;17476;48.458;7.928;2023-05-19T13:43:00;0.00;;;0.00;;
30729;SDS011;17476;48.458;7.928;2023-05-19T13:45:27;0.00;;;0.00;;
30729;SDS011;17476;48.458;7.928;2023-05-19T13:47:53;0.10;;;0.10;;
30729;SDS011;17476;48.458;7.928;2023-05-19T13:50:19;0.10;;;0.10;;
30729;SDS011;17476;48.458;7.928;2023-05-19T13:52:45;0.10;;;0.10;;
30729;SDS011;17476;48.458;7.928;2023-05-19T13:55:11;0.10;;;0.10;;
30729;SDS011;17476;48.458;7.928;2023-05-19T13:57:37;0.00;;;0.00;;
30729;SDS011;17476;48.458;7.928;2023-05-19T14:00:03;0.00;;;0.00;;
30729;SDS011;17476;48.458;7.928;2023-05-19T14:02:30;0.10;;;0.10;;
30729;SDS011;17476;48.458;7.928;2023-05-19T14:04:57;0.00;;;0.00;;
30729;SDS011;17476;48.458;7.928;2023-05-19T14:07:23;0.07;;;0.07;;
30729;SDS011;17476;48.458;7.928;2023-05-19T14:09:49;0.10;;;0.10;;
30729;SDS011;17476;48.458;7.928;2023-05-19T14:12:16;0.00;;;0.00;;
30729;SDS011;17476;48.458;7.928;2023-05-19T14:14:42;0.00;;;0.00;;
30729;SDS011;17476;48.458;7.928;2023-05-19T14:17:07;0.10;;;0.10;;
30729;SDS011;17476;48.458;7.928;2023-05-19T14:19:33;0.10;;;0.10;;
30729;SDS011;17476;48.458;7.928;2023-05-19T14:21:59;0.10;;;0.10;;
30729;SDS011;17476;48.458;7.928;2023-05-19T14:24:25;0.00;;;0.00;;
30729;SDS011;17476;48.458;7.928;2023-05-19T14:26:51;0.10;;;0.10;;
30729;SDS011;17476;48.458;7.928;2023-05-19T14:29:17;0.00;;;0.00;;
30729;SDS011;17476;48.458;7.928;2023-05-19T14:31:44;0.00;;;0.00;;
30729;SDS011;17476;48.458;7.928;2023-05-19T14:34:10;0.10;;;0.10;;
30729;SDS011;17476;48.458;7.928;2023-05-19T14:36:35;0.07;;;0.07;;
30729;SDS011;17476;48.458;7.928;2023-05-19T14:39:01;0.00;;;0.00;;
30729;SDS011;17476;48.458;7.928;2023-05-19T14:41:27;0.10;;;0.10;;
30729;SDS011;17476;48.458;7.928;2023-05-19T14:43:53;0.00;;;0.00;;
30729;SDS011;17476;48.458;7.928;2023-05-19T14:46:19;0.00;;;0.00;;
30729;SDS011;17476;48.458;7.928;2023-05-19T14:48:46;0.07;;;0.07;;
30729;SDS011;17476;48.458;7.928;2023-05-19T14:51:11;0.00;;;0.00;;
30729;SDS011;17476;48.458;7.928;2023-05-19T14:53:37;0.10;;;0.10;;
30729;SDS011;17476;48.458;7.928;2023-05-19T14:56:03;0.10;;;0.10;;
30729;SDS011;17476;48.458;7.928;2023-05-19T14:58:29;0.10;;;0.10;;
30729;SDS011;17476;48.458;7.928;2023-05-19T15:00:56;0.00;;;0.00;;
30729;SDS011;17476;48.458;7.928;2023-05-19T15:03:26;0.10;;;0.10;;
30729;SDS011;17476;48.458;7.928;2023-05-19T15:06:08;0.10;;;0.10;;
30729;SDS011;17476;48.458;7.928;2023-05-19T15:08:37;0.10;;;0.10;;
30729;SDS011;17476;48.458;7.928;2023-05-19T15:11:04;0.00;;;0.00;;
30729;SDS011;17476;48.458;7.928;2023-05-19T15:13:30;0.10;;;0.10;;
30729;SDS011;17476;48.458;7.928;2023-05-19T15:15:56;0.10;;;0.10;;
30729;SDS011;17476;48.458;7.928;2023-05-19T15:18:22;0.00;;;0.00;;